sensor_id;sensor_type;location;lat;lon;timestamp;temperature;humidity
15239;DHT22;7722;53.274;9.500;2023-03-19T00:00:20;9.00;99.90
15239;DHT22;7722;53.274;9.500;2023-03-19T00:02:47;9.00;99.90
15239;DHT22;7722;53.274;9.500;2023-03-19T00:05:16;8.80;99.90
15239;DHT22;7722;53.274;9.500;2023-03-19T00:07:43;8.80;99.90
15239;DHT22;7722;53.274;9.500;2023-03-19T00:10:10;8.70;99.90
15239;DHT22;7722;53.274;9.500;2023-03-19T00:12:39;8.60;99.90
15239;DHT22;7722;53.274;9.500;2023-03-19T00:15:07;8.60;99.90
15239;DHT22;7722;53.274;9.500;2023-03-19T00:17:38;8.50;99.90
15239;DHT22;7722;53.274;9.500;2023-03-19T00:20:07;8.40;99.90
15239;DHT22;7722;53.274;9.500;2023-03-19T00:22:34;8.40;99.90
15239;DHT22;7722;53.274;9.500;2023-03-19T00:25:01;8.40;99.90
15239;DHT22;7722;53.274;9.500;2023-03-19T00:27:28;8.30;99.90
15239;DHT22;7722;53.274;9.500;2023-03-19T00:29:57;8.20;99.90
15239;DHT22;7722;53.274;9.500;2023-03-19T00:32:24;8.20;99.90
15239;DHT22;7722;53.274;9.500;2023-03-19T00:34:51;8.10;99.90
15239;DHT22;7722;53.274;9.500;2023-03-19T00:37:18;8.00;99.90
15239;DHT22;7722;53.274;9.500;2023-03-19T00:39:45;8.10;99.90
15239;DHT22;7722;53.274;9.500;2023-03-19T00:42:12;8.10;99.90
15239;DHT22;7722;53.274;9.500;2023-03-19T00:44:39;8.10;99.90
15239;DHT22;7722;53.274;9.500;2023-03-19T00:47:08;8.00;99.90
15239;DHT22;7722;53.274;9.500;2023-03-19T00:49:35;8.00;99.90
15239;DHT22;7722;53.274;9.500;2023-03-19T00:52:02;8.00;99.90
15239;DHT22;7722;53.274;9.500;2023-03-19T00:54:29;7.90;99.90
15239;DHT22;7722;53.274;9.500;2023-03-19T00:56:56;7.90;99.90
15239;DHT22;7722;53.274;9.500;2023-03-19T00:59:24;7.90;99.90
15239;DHT22;7722;53.274;9.500;2023-03-19T01:01:51;7.90;99.90
15239;DHT22;7722;53.274;9.500;2023-03-19T01:04:20;7.70;99.90
15239;DHT22;7722;53.274;9.500;2023-03-19T01:06:48;7.70;99.90
15239;DHT22;7722;53.274;9.500;2023-03-19T01:09:15;7.70;99.90
15239;DHT22;7722;53.274;9.500;2023-03-19T01:11:42;7.60;99.90
15239;DHT22;7722;53.274;9.500;2023-03-19T01:14:09;7.60;99.90
15239;DHT22;7722;53.274;9.500;2023-03-19T01:16:37;7.60;99.90
15239;DHT22;7722;53.274;9.500;2023-03-19T01:19:04;7.60;99.90
15239;DHT22;7722;53.274;9.500;2023-03-19T01:21:32;7.60;99.90
15239;DHT22;7722;53.274;9.500;2023-03-19T01:24:01;7.60;99.90
15239;DHT22;7722;53.274;9.500;2023-03-19T01:26:28;7.70;99.90
15239;DHT22;7722;53.274;9.500;2023-03-19T01:28:56;7.60;99.90
15239;DHT22;7722;53.274;9.500;2023-03-19T01:31:23;7.60;99.90
15239;DHT22;7722;53.274;9.500;2023-03-19T01:33:50;7.70;99.90
15239;DHT22;7722;53.274;9.500;2023-03-19T01:36:17;7.70;99.90
15239;DHT22;7722;53.274;9.500;2023-03-19T01:38:46;7.70;99.90
15239;DHT22;7722;53.274;9.500;2023-03-19T01:41:13;7.70;99.90
15239;DHT22;7722;53.274;9.500;2023-03-19T01:43:40;7.70;99.90
15239;DHT22;7722;53.274;9.500;2023-03-19T01:46:15;7.70;99.90
15239;DHT22;7722;53.274;9.500;2023-03-19T01:48:46;7.70;99.90
15239;DHT22;7722;53.274;9.500;2023-03-19T01:51:16;7.70;99.90
15239;DHT22;7722;53.274;9.500;2023-03-19T01:53:48;7.60;99.90
15239;DHT22;7722;53.274;9.500;2023-03-19T01:56:18;7.60;99.90
15239;DHT22;7722;53.274;9.500;2023-03-19T01:58:47;7.50;99.90
15239;DHT22;7722;53.274;9.500;2023-03-19T02:01:15;7.50;99.90
15239;DHT22;7722;53.274;9.500;2023-03-19T02:04:03;7.40;99.90
15239;DHT22;7722;53.274;9.500;2023-03-19T02:06:48;7.40;99.90
15239;DHT22;7722;53.274;9.500;2023-03-19T02:09:18;7.40;99.90
15239;DHT22;7722;53.274;9.500;2023-03-19T02:11:45;7.40;99.90
15239;DHT22;7722;53.274;9.500;2023-03-19T02:14:12;7.40;99.90
15239;DHT22;7722;53.274;9.500;2023-03-19T02:16:39;7.20;99.90
15239;DHT22;7722;53.274;9.500;2023-03-19T02:19:11;7.20;99.90
15239;DHT22;7722;53.274;9.500;2023-03-19T02:21:41;7.20;99.90
15239;DHT22;7722;53.274;9.500;2023-03-19T02:24:12;7.10;99.90
15239;DHT22;7722;53.274;9.500;2023-03-19T02:26:43;7.10;99.90
15239;DHT22;7722;53.274;9.500;2023-03-19T02:29:12;7.10;99.90
15239;DHT22;7722;53.274;9.500;2023-03-19T02:31:39;7.10;99.90
15239;DHT22;7722;53.274;9.500;2023-03-19T02:34:33;7.00;99.90
15239;DHT22;7722;53.274;9.500;2023-03-19T02:37:04;7.00;99.90
15239;DHT22;7722;53.274;9.500;2023-03-19T02:39:37;6.90;99.90
15239;DHT22;7722;53.274;9.500;2023-03-19T02:42:08;7.00;99.90
15239;DHT22;7722;53.274;9.500;2023-03-19T02:44:35;7.00;99.90
15239;DHT22;7722;53.274;9.500;2023-03-19T02:47:03;6.90;99.90
15239;DHT22;7722;53.274;9.500;2023-03-19T02:49:30;7.00;99.90
15239;DHT22;7722;53.274;9.500;2023-03-19T02:51:57;7.00;99.90
15239;DHT22;7722;53.274;9.500;2023-03-19T02:54:24;7.00;99.90
15239;DHT22;7722;53.274;9.500;2023-03-19T02:56:51;6.90;99.90
15239;DHT22;7722;53.274;9.500;2023-03-19T02:59:20;6.80;99.90
15239;DHT22;7722;53.274;9.500;2023-03-19T03:01:47;6.90;99.90
15239;DHT22;7722;53.274;9.500;2023-03-19T03:04:15;6.90;99.90
15239;DHT22;7722;53.274;9.500;2023-03-19T03:06:42;6.90;99.90
15239;DHT22;7722;53.274;9.500;2023-03-19T03:09:10;6.90;99.90
15239;DHT22;7722;53.274;9.500;2023-03-19T03:11:38;6.90;99.90
15239;DHT22;7722;53.274;9.500;2023-03-19T03:14:06;6.90;99.90
15239;DHT22;7722;53.274;9.500;2023-03-19T03:16:35;6.80;99.90
15239;DHT22;7722;53.274;9.500;2023-03-19T03:19:02;7.00;99.90
15239;DHT22;7722;53.274;9.500;2023-03-19T03:21:29;7.10;99.90
15239;DHT22;7722;53.274;9.500;2023-03-19T03:23:56;7.00;99.90
15239;DHT22;7722;53.274;9.500;2023-03-19T03:26:23;7.20;99.90
15239;DHT22;7722;53.274;9.500;2023-03-19T03:28:51;7.30;99.90
15239;DHT22;7722;53.274;9.500;2023-03-19T03:31:19;7.30;99.90
15239;DHT22;7722;53.274;9.500;2023-03-19T03:33:47;7.20;99.90
15239;DHT22;7722;53.274;9.500;2023-03-19T03:36:15;7.20;99.90
15239;DHT22;7722;53.274;9.500;2023-03-19T03:38:42;7.20;99.90
15239;DHT22;7722;53.274;9.500;2023-03-19T03:41:09;7.20;99.90
15239;DHT22;7722;53.274;9.500;2023-03-19T03:43:36;7.20;99.90
15239;DHT22;7722;53.274;9.500;2023-03-19T03:46:04;7.10;99.90
15239;DHT22;7722;53.274;9.500;2023-03-19T03:48:32;6.90;99.90
15239;DHT22;7722;53.274;9.500;2023-03-19T03:51:00;7.00;99.90
15239;DHT22;7722;53.274;9.500;2023-03-19T03:53:27;7.00;99.90
15239;DHT22;7722;53.274;9.500;2023-03-19T03:55:54;7.00;99.90
15239;DHT22;7722;53.274;9.500;2023-03-19T03:58:21;7.00;99.90
15239;DHT22;7722;53.274;9.500;2023-03-19T04:00:49;6.90;99.90
15239;DHT22;7722;53.274;9.500;2023-03-19T04:03:16;6.90;99.90
15239;DHT22;7722;53.274;9.500;2023-03-19T04:05:44;7.00;99.90
15239;DHT22;7722;53.274;9.500;2023-03-19T04:08:12;7.00;99.90
15239;DHT22;7722;53.274;9.500;2023-03-19T04:10:41;7.10;99.90
15239;DHT22;7722;53.274;9.500;2023-03-19T04:13:08;7.10;99.90
15239;DHT22;7722;53.274;9.500;2023-03-19T04:15:35;7.30;99.90
15239;DHT22;7722;53.274;9.500;2023-03-19T04:18:02;7.40;99.90
15239;DHT22;7722;53.274;9.500;2023-03-19T04:20:29;7.50;99.90
15239;DHT22;7722;53.274;9.500;2023-03-19T04:22:56;7.50;99.90
15239;DHT22;7722;53.274;9.500;2023-03-19T04:25:25;7.60;99.90
15239;DHT22;7722;53.274;9.500;2023-03-19T04:27:52;7.80;99.90
15239;DHT22;7722;53.274;9.500;2023-03-19T04:30:19;7.80;99.90
15239;DHT22;7722;53.274;9.500;2023-03-19T04:32:46;7.80;99.90
15239;DHT22;7722;53.274;9.500;2023-03-19T04:35:13;7.90;99.90
15239;DHT22;7722;53.274;9.500;2023-03-19T04:37:40;8.00;99.90
15239;DHT22;7722;53.274;9.500;2023-03-19T04:40:09;8.00;99.90
15239;DHT22;7722;53.274;9.500;2023-03-19T04:42:38;8.10;99.90
15239;DHT22;7722;53.274;9.500;2023-03-19T04:45:06;8.10;99.90
15239;DHT22;7722;53.274;9.500;2023-03-19T04:47:34;8.00;99.90
15239;DHT22;7722;53.274;9.500;2023-03-19T04:50:01;8.10;99.90
15239;DHT22;7722;53.274;9.500;2023-03-19T04:52:28;8.10;99.90
15239;DHT22;7722;53.274;9.500;2023-03-19T04:54:55;8.20;99.90
15239;DHT22;7722;53.274;9.500;2023-03-19T04:57:22;8.10;99.90
15239;DHT22;7722;53.274;9.500;2023-03-19T04:59:51;8.10;99.90
15239;DHT22;7722;53.274;9.500;2023-03-19T05:02:18;8.10;99.90
15239;DHT22;7722;53.274;9.500;2023-03-19T05:04:45;8.10;99.90
15239;DHT22;7722;53.274;9.500;2023-03-19T05:07:12;8.10;99.90
15239;DHT22;7722;53.274;9.500;2023-03-19T05:09:39;8.10;99.90
15239;DHT22;7722;53.274;9.500;2023-03-19T05:12:08;8.10;99.90
15239;DHT22;7722;53.274;9.500;2023-03-19T05:14:36;8.10;99.90
15239;DHT22;7722;53.274;9.500;2023-03-19T05:17:04;8.10;99.90
15239;DHT22;7722;53.274;9.500;2023-03-19T05:19:32;8.10;99.90
15239;DHT22;7722;53.274;9.500;2023-03-19T05:21:59;8.00;99.90
15239;DHT22;7722;53.274;9.500;2023-03-19T05:24:26;8.00;99.90
15239;DHT22;7722;53.274;9.500;2023-03-19T05:26:53;8.00;99.90
15239;DHT22;7722;53.274;9.500;2023-03-19T05:29:20;8.00;99.90
15239;DHT22;7722;53.274;9.500;2023-03-19T05:31:48;8.00;99.90
15239;DHT22;7722;53.274;9.500;2023-03-19T05:34:17;8.00;99.90
15239;DHT22;7722;53.274;9.500;2023-03-19T05:36:44;8.00;99.90
15239;DHT22;7722;53.274;9.500;2023-03-19T05:39:11;8.10;99.90
15239;DHT22;7722;53.274;9.500;2023-03-19T05:41:38;8.10;99.90
15239;DHT22;7722;53.274;9.500;2023-03-19T05:44:05;8.10;99.90
15239;DHT22;7722;53.274;9.500;2023-03-19T05:46:33;8.10;99.90
15239;DHT22;7722;53.274;9.500;2023-03-19T05:49:00;8.20;99.90
15239;DHT22;7722;53.274;9.500;2023-03-19T05:51:29;8.30;99.90
15239;DHT22;7722;53.274;9.500;2023-03-19T05:53:56;8.30;99.90
15239;DHT22;7722;53.274;9.500;2023-03-19T05:56:23;8.20;99.90
15239;DHT22;7722;53.274;9.500;2023-03-19T05:58:50;8.30;99.90
15239;DHT22;7722;53.274;9.500;2023-03-19T06:01:18;8.30;99.90
15239;DHT22;7722;53.274;9.500;2023-03-19T06:03:45;8.20;99.90
15239;DHT22;7722;53.274;9.500;2023-03-19T06:06:12;8.30;99.90
15239;DHT22;7722;53.274;9.500;2023-03-19T06:08:40;8.30;99.90
15239;DHT22;7722;53.274;9.500;2023-03-19T06:11:08;8.40;99.90
15239;DHT22;7722;53.274;9.500;2023-03-19T06:13:35;8.50;99.90
15239;DHT22;7722;53.274;9.500;2023-03-19T06:16:03;8.40;99.90
15239;DHT22;7722;53.274;9.500;2023-03-19T06:18:30;8.50;99.90
15239;DHT22;7722;53.274;9.500;2023-03-19T06:20:57;8.60;99.90
15239;DHT22;7722;53.274;9.500;2023-03-19T06:23:24;8.60;99.90
15239;DHT22;7722;53.274;9.500;2023-03-19T06:25:52;8.70;99.90
15239;DHT22;7722;53.274;9.500;2023-03-19T06:28:19;8.60;99.90
15239;DHT22;7722;53.274;9.500;2023-03-19T06:30:46;8.70;99.90
15239;DHT22;7722;53.274;9.500;2023-03-19T06:33:13;8.70;99.90
15239;DHT22;7722;53.274;9.500;2023-03-19T06:35:41;8.70;99.90
15239;DHT22;7722;53.274;9.500;2023-03-19T06:38:08;8.80;99.90
15239;DHT22;7722;53.274;9.500;2023-03-19T06:40:35;8.80;99.90
15239;DHT22;7722;53.274;9.500;2023-03-19T06:43:03;8.80;99.90
15239;DHT22;7722;53.274;9.500;2023-03-19T06:45:30;9.00;99.90
15239;DHT22;7722;53.274;9.500;2023-03-19T06:47:57;9.00;99.90
15239;DHT22;7722;53.274;9.500;2023-03-19T06:50:24;9.00;99.90
15239;DHT22;7722;53.274;9.500;2023-03-19T06:52:51;9.10;99.90
15239;DHT22;7722;53.274;9.500;2023-03-19T06:55:18;9.30;99.90
15239;DHT22;7722;53.274;9.500;2023-03-19T06:57:47;9.40;99.90
15239;DHT22;7722;53.274;9.500;2023-03-19T07:00:17;9.50;99.90
15239;DHT22;7722;53.274;9.500;2023-03-19T07:02:45;9.50;99.90
15239;DHT22;7722;53.274;9.500;2023-03-19T07:05:12;9.50;99.90
15239;DHT22;7722;53.274;9.500;2023-03-19T07:07:39;9.50;99.90
15239;DHT22;7722;53.274;9.500;2023-03-19T07:10:07;9.60;99.90
15239;DHT22;7722;53.274;9.500;2023-03-19T07:12:34;9.60;99.90
15239;DHT22;7722;53.274;9.500;2023-03-19T07:15:01;9.60;99.90
15239;DHT22;7722;53.274;9.500;2023-03-19T07:17:30;9.60;99.90
15239;DHT22;7722;53.274;9.500;2023-03-19T07:19:57;9.60;99.90
15239;DHT22;7722;53.274;9.500;2023-03-19T07:22:25;9.70;99.90
15239;DHT22;7722;53.274;9.500;2023-03-19T07:24:52;9.70;99.90
15239;DHT22;7722;53.274;9.500;2023-03-19T07:27:19;9.80;99.90
15239;DHT22;7722;53.274;9.500;2023-03-19T07:29:46;9.90;99.90
15239;DHT22;7722;53.274;9.500;2023-03-19T07:32:13;10.00;99.90
15239;DHT22;7722;53.274;9.500;2023-03-19T07:34:42;10.10;99.90
15239;DHT22;7722;53.274;9.500;2023-03-19T07:37:09;10.00;99.90
15239;DHT22;7722;53.274;9.500;2023-03-19T07:39:36;10.00;99.90
15239;DHT22;7722;53.274;9.500;2023-03-19T07:42:04;10.10;99.90
15239;DHT22;7722;53.274;9.500;2023-03-19T07:44:31;10.10;99.90
15239;DHT22;7722;53.274;9.500;2023-03-19T07:46:58;10.10;99.90
15239;DHT22;7722;53.274;9.500;2023-03-19T07:49:25;10.10;99.90
15239;DHT22;7722;53.274;9.500;2023-03-19T07:51:54;10.10;99.90
15239;DHT22;7722;53.274;9.500;2023-03-19T07:54:21;10.10;99.90
15239;DHT22;7722;53.274;9.500;2023-03-19T07:56:48;10.20;99.90
15239;DHT22;7722;53.274;9.500;2023-03-19T07:59:16;10.30;99.90
15239;DHT22;7722;53.274;9.500;2023-03-19T08:01:43;10.40;99.90
15239;DHT22;7722;53.274;9.500;2023-03-19T08:04:10;10.60;99.90
15239;DHT22;7722;53.274;9.500;2023-03-19T08:06:38;10.80;99.90
15239;DHT22;7722;53.274;9.500;2023-03-19T08:09:06;11.00;99.90
15239;DHT22;7722;53.274;9.500;2023-03-19T08:11:34;11.20;99.90
15239;DHT22;7722;53.274;9.500;2023-03-19T08:14:01;11.40;99.90
15239;DHT22;7722;53.274;9.500;2023-03-19T08:16:29;11.70;99.90
15239;DHT22;7722;53.274;9.500;2023-03-19T08:18:56;11.90;99.90
15239;DHT22;7722;53.274;9.500;2023-03-19T08:21:23;12.10;99.90
15239;DHT22;7722;53.274;9.500;2023-03-19T08:23:51;12.30;99.90
15239;DHT22;7722;53.274;9.500;2023-03-19T08:26:19;12.60;99.90
15239;DHT22;7722;53.274;9.500;2023-03-19T08:28:46;13.00;99.90
15239;DHT22;7722;53.274;9.500;2023-03-19T08:31:13;13.30;99.90
15239;DHT22;7722;53.274;9.500;2023-03-19T08:33:41;13.60;99.90
15239;DHT22;7722;53.274;9.500;2023-03-19T08:36:09;13.90;99.90
15239;DHT22;7722;53.274;9.500;2023-03-19T08:38:37;14.30;99.90
15239;DHT22;7722;53.274;9.500;2023-03-19T08:41:04;14.50;99.90
15239;DHT22;7722;53.274;9.500;2023-03-19T08:43:35;14.60;99.90
15239;DHT22;7722;53.274;9.500;2023-03-19T08:46:02;14.80;99.90
15239;DHT22;7722;53.274;9.500;2023-03-19T08:48:30;14.80;99.90
15239;DHT22;7722;53.274;9.500;2023-03-19T08:50:58;14.80;99.90
15239;DHT22;7722;53.274;9.500;2023-03-19T08:53:26;15.20;99.90
15239;DHT22;7722;53.274;9.500;2023-03-19T08:55:55;15.20;99.90
15239;DHT22;7722;53.274;9.500;2023-03-19T08:58:23;15.30;99.90
15239;DHT22;7722;53.274;9.500;2023-03-19T09:00:51;15.30;99.90
15239;DHT22;7722;53.274;9.500;2023-03-19T09:03:19;15.20;99.90
15239;DHT22;7722;53.274;9.500;2023-03-19T09:05:46;15.40;99.90
15239;DHT22;7722;53.274;9.500;2023-03-19T09:08:13;15.70;99.90
15239;DHT22;7722;53.274;9.500;2023-03-19T09:10:40;15.60;99.90
15239;DHT22;7722;53.274;9.500;2023-03-19T09:13:08;15.60;99.90
15239;DHT22;7722;53.274;9.500;2023-03-19T09:15:35;15.60;99.90
15239;DHT22;7722;53.274;9.500;2023-03-19T09:18:04;15.60;99.90
15239;DHT22;7722;53.274;9.500;2023-03-19T09:20:31;15.40;99.90
15239;DHT22;7722;53.274;9.500;2023-03-19T09:22:58;15.30;99.90
15239;DHT22;7722;53.274;9.500;2023-03-19T09:25:25;15.50;99.90
15239;DHT22;7722;53.274;9.500;2023-03-19T09:27:52;15.70;99.90
15239;DHT22;7722;53.274;9.500;2023-03-19T09:30:19;16.10;99.90
15239;DHT22;7722;53.274;9.500;2023-03-19T09:32:47;16.40;99.90
15239;DHT22;7722;53.274;9.500;2023-03-19T09:35:15;16.40;99.90
15239;DHT22;7722;53.274;9.500;2023-03-19T09:37:42;16.50;99.90
15239;DHT22;7722;53.274;9.500;2023-03-19T09:40:20;16.50;99.90
15239;DHT22;7722;53.274;9.500;2023-03-19T09:42:54;16.60;99.90
15239;DHT22;7722;53.274;9.500;2023-03-19T09:45:26;16.30;99.90
15239;DHT22;7722;53.274;9.500;2023-03-19T09:47:57;16.10;99.90
15239;DHT22;7722;53.274;9.500;2023-03-19T09:50:28;16.10;99.90
15239;DHT22;7722;53.274;9.500;2023-03-19T09:53:02;16.20;99.90
15239;DHT22;7722;53.274;9.500;2023-03-19T09:55:39;16.20;99.90
15239;DHT22;7722;53.274;9.500;2023-03-19T09:58:14;16.10;99.90
15239;DHT22;7722;53.274;9.500;2023-03-19T10:00:46;16.10;99.90
15239;DHT22;7722;53.274;9.500;2023-03-19T10:03:26;16.20;99.90
15239;DHT22;7722;53.274;9.500;2023-03-19T10:06:05;16.60;99.90
15239;DHT22;7722;53.274;9.500;2023-03-19T10:11:41;17.30;99.90
15239;DHT22;7722;53.274;9.500;2023-03-19T10:14:22;17.40;99.90
15239;DHT22;7722;53.274;9.500;2023-03-19T10:16:56;17.50;99.90
15239;DHT22;7722;53.274;9.500;2023-03-19T10:19:31;17.20;99.90
15239;DHT22;7722;53.274;9.500;2023-03-19T10:22:09;16.90;99.90
15239;DHT22;7722;53.274;9.500;2023-03-19T10:24:39;16.70;99.90
15239;DHT22;7722;53.274;9.500;2023-03-19T10:27:10;16.50;99.90
15239;DHT22;7722;53.274;9.500;2023-03-19T10:29:38;16.30;99.90
15239;DHT22;7722;53.274;9.500;2023-03-19T10:32:15;16.20;99.90
15239;DHT22;7722;53.274;9.500;2023-03-19T10:34:43;16.40;99.90
15239;DHT22;7722;53.274;9.500;2023-03-19T10:37:17;16.20;99.90
15239;DHT22;7722;53.274;9.500;2023-03-19T10:39:46;16.40;99.90
15239;DHT22;7722;53.274;9.500;2023-03-19T10:42:34;16.50;99.90
15239;DHT22;7722;53.274;9.500;2023-03-19T10:45:13;16.70;99.90
15239;DHT22;7722;53.274;9.500;2023-03-19T10:47:42;16.80;99.90
15239;DHT22;7722;53.274;9.500;2023-03-19T10:50:14;16.90;99.90
15239;DHT22;7722;53.274;9.500;2023-03-19T10:52:45;17.00;99.90
15239;DHT22;7722;53.274;9.500;2023-03-19T10:55:17;17.20;99.90
15239;DHT22;7722;53.274;9.500;2023-03-19T10:57:50;17.10;99.90
15239;DHT22;7722;53.274;9.500;2023-03-19T11:00:23;17.10;99.90
15239;DHT22;7722;53.274;9.500;2023-03-19T11:02:53;17.00;99.90
15239;DHT22;7722;53.274;9.500;2023-03-19T11:05:26;16.90;99.90
15239;DHT22;7722;53.274;9.500;2023-03-19T11:08:00;16.90;99.90
15239;DHT22;7722;53.274;9.500;2023-03-19T11:10:29;17.10;99.90
15239;DHT22;7722;53.274;9.500;2023-03-19T11:12:58;17.50;99.90
15239;DHT22;7722;53.274;9.500;2023-03-19T11:15:30;17.50;99.90
15239;DHT22;7722;53.274;9.500;2023-03-19T11:18:05;17.60;99.90
15239;DHT22;7722;53.274;9.500;2023-03-19T11:20:35;17.60;99.90
15239;DHT22;7722;53.274;9.500;2023-03-19T11:23:06;17.80;99.90
15239;DHT22;7722;53.274;9.500;2023-03-19T11:25:38;17.50;99.90
15239;DHT22;7722;53.274;9.500;2023-03-19T11:28:08;17.40;99.90
15239;DHT22;7722;53.274;9.500;2023-03-19T11:30:46;17.70;99.90
15239;DHT22;7722;53.274;9.500;2023-03-19T11:36:22;17.50;99.90
15239;DHT22;7722;53.274;9.500;2023-03-19T11:39:03;17.60;99.90
15239;DHT22;7722;53.274;9.500;2023-03-19T11:41:45;17.60;99.90
15239;DHT22;7722;53.274;9.500;2023-03-19T11:44:21;17.30;99.90
15239;DHT22;7722;53.274;9.500;2023-03-19T11:46:57;17.20;99.90
15239;DHT22;7722;53.274;9.500;2023-03-19T11:49:49;17.40;99.90
15239;DHT22;7722;53.274;9.500;2023-03-19T11:52:23;17.60;99.90
15239;DHT22;7722;53.274;9.500;2023-03-19T11:55:07;17.50;99.90
15239;DHT22;7722;53.274;9.500;2023-03-19T11:57:57;17.30;99.90
15239;DHT22;7722;53.274;9.500;2023-03-19T12:00:29;17.50;99.90
15239;DHT22;7722;53.274;9.500;2023-03-19T12:06:08;17.40;99.90
15239;DHT22;7722;53.274;9.500;2023-03-19T12:08:41;16.90;99.90
15239;DHT22;7722;53.274;9.500;2023-03-19T12:11:23;17.00;99.90
15239;DHT22;7722;53.274;9.500;2023-03-19T12:14:06;17.10;99.90
15239;DHT22;7722;53.274;9.500;2023-03-19T12:16:51;17.10;99.90
15239;DHT22;7722;53.274;9.500;2023-03-19T12:19:44;16.80;99.90
15239;DHT22;7722;53.274;9.500;2023-03-19T12:22:21;16.50;99.90
15239;DHT22;7722;53.274;9.500;2023-03-19T12:25:08;16.60;99.90
15239;DHT22;7722;53.274;9.500;2023-03-19T12:27:49;16.80;99.90
15239;DHT22;7722;53.274;9.500;2023-03-19T12:30:27;16.80;99.90
15239;DHT22;7722;53.274;9.500;2023-03-19T12:33:22;16.70;99.90
15239;DHT22;7722;53.274;9.500;2023-03-19T12:35:54;16.60;99.90
15239;DHT22;7722;53.274;9.500;2023-03-19T12:38:23;16.60;99.90
15239;DHT22;7722;53.274;9.500;2023-03-19T12:40:55;16.70;99.90
15239;DHT22;7722;53.274;9.500;2023-03-19T12:43:29;16.70;99.90
15239;DHT22;7722;53.274;9.500;2023-03-19T12:46:02;16.70;99.90
15239;DHT22;7722;53.274;9.500;2023-03-19T12:48:38;16.60;99.90
15239;DHT22;7722;53.274;9.500;2023-03-19T12:51:09;16.60;99.90
15239;DHT22;7722;53.274;9.500;2023-03-19T12:53:44;16.90;99.90
15239;DHT22;7722;53.274;9.500;2023-03-19T12:56:16;17.00;99.90
15239;DHT22;7722;53.274;9.500;2023-03-19T12:58:52;16.90;99.90
15239;DHT22;7722;53.274;9.500;2023-03-19T13:01:25;17.00;99.90
15239;DHT22;7722;53.274;9.500;2023-03-19T13:03:55;17.70;99.90
15239;DHT22;7722;53.274;9.500;2023-03-19T13:06:27;18.00;99.90
15239;DHT22;7722;53.274;9.500;2023-03-19T13:09:00;17.90;99.90
15239;DHT22;7722;53.274;9.500;2023-03-19T13:11:37;17.80;99.90
15239;DHT22;7722;53.274;9.500;2023-03-19T13:14:15;17.40;99.90
15239;DHT22;7722;53.274;9.500;2023-03-19T13:16:49;17.10;99.90
15239;DHT22;7722;53.274;9.500;2023-03-19T13:19:23;17.10;99.90
15239;DHT22;7722;53.274;9.500;2023-03-19T13:21:55;16.60;99.90
15239;DHT22;7722;53.274;9.500;2023-03-19T13:24:26;16.50;99.90
15239;DHT22;7722;53.274;9.500;2023-03-19T13:26:54;16.40;99.90
15239;DHT22;7722;53.274;9.500;2023-03-19T13:29:24;16.20;99.90
15239;DHT22;7722;53.274;9.500;2023-03-19T13:31:58;16.10;99.90
15239;DHT22;7722;53.274;9.500;2023-03-19T13:34:29;16.10;99.90
15239;DHT22;7722;53.274;9.500;2023-03-19T13:37:00;16.30;99.90
15239;DHT22;7722;53.274;9.500;2023-03-19T13:39:32;16.40;99.90
15239;DHT22;7722;53.274;9.500;2023-03-19T13:42:33;16.50;99.90
15239;DHT22;7722;53.274;9.500;2023-03-19T13:45:28;16.40;99.90
15239;DHT22;7722;53.274;9.500;2023-03-19T13:47:57;16.20;99.90
15239;DHT22;7722;53.274;9.500;2023-03-19T13:50:29;16.10;99.90
15239;DHT22;7722;53.274;9.500;2023-03-19T13:53:20;16.00;99.90
15239;DHT22;7722;53.274;9.500;2023-03-19T13:55:51;15.90;99.90
15239;DHT22;7722;53.274;9.500;2023-03-19T13:58:22;16.00;99.90
15239;DHT22;7722;53.274;9.500;2023-03-19T14:01:11;16.00;99.90
15239;DHT22;7722;53.274;9.500;2023-03-19T14:03:59;16.00;99.90
15239;DHT22;7722;53.274;9.500;2023-03-19T14:06:34;15.70;99.90
15239;DHT22;7722;53.274;9.500;2023-03-19T14:09:03;15.50;99.90
15239;DHT22;7722;53.274;9.500;2023-03-19T14:11:32;15.60;99.90
15239;DHT22;7722;53.274;9.500;2023-03-19T14:14:02;15.70;99.90
15239;DHT22;7722;53.274;9.500;2023-03-19T14:16:33;15.90;99.90
15239;DHT22;7722;53.274;9.500;2023-03-19T14:19:02;15.80;99.90
15239;DHT22;7722;53.274;9.500;2023-03-19T14:21:33;15.90;99.90
15239;DHT22;7722;53.274;9.500;2023-03-19T14:24:28;15.50;99.90
15239;DHT22;7722;53.274;9.500;2023-03-19T14:27:01;15.70;99.90
15239;DHT22;7722;53.274;9.500;2023-03-19T14:29:33;15.70;99.90
15239;DHT22;7722;53.274;9.500;2023-03-19T14:32:06;15.50;99.90
15239;DHT22;7722;53.274;9.500;2023-03-19T14:34:37;15.40;99.90
15239;DHT22;7722;53.274;9.500;2023-03-19T14:37:17;15.70;99.90
15239;DHT22;7722;53.274;9.500;2023-03-19T14:39:49;15.50;99.90
15239;DHT22;7722;53.274;9.500;2023-03-19T14:42:20;15.20;99.90
15239;DHT22;7722;53.274;9.500;2023-03-19T14:45:16;15.50;99.90
15239;DHT22;7722;53.274;9.500;2023-03-19T14:48:05;16.30;99.90
15239;DHT22;7722;53.274;9.500;2023-03-19T14:50:56;16.80;99.90
15239;DHT22;7722;53.274;9.500;2023-03-19T14:53:33;17.00;99.90
15239;DHT22;7722;53.274;9.500;2023-03-19T14:56:10;17.00;99.90
15239;DHT22;7722;53.274;9.500;2023-03-19T14:58:47;17.20;99.90
15239;DHT22;7722;53.274;9.500;2023-03-19T15:01:15;17.80;99.90
15239;DHT22;7722;53.274;9.500;2023-03-19T15:03:44;18.10;99.90
15239;DHT22;7722;53.274;9.500;2023-03-19T15:06:12;18.30;99.90
15239;DHT22;7722;53.274;9.500;2023-03-19T15:08:41;18.30;99.90
15239;DHT22;7722;53.274;9.500;2023-03-19T15:14:33;18.60;99.90
15239;DHT22;7722;53.274;9.500;2023-03-19T15:17:07;19.10;99.90
15239;DHT22;7722;53.274;9.500;2023-03-19T15:19:38;18.90;99.90
15239;DHT22;7722;53.274;9.500;2023-03-19T15:22:12;19.50;99.50
15239;DHT22;7722;53.274;9.500;2023-03-19T15:24:39;19.80;98.10
15239;DHT22;7722;53.274;9.500;2023-03-19T15:27:18;19.90;98.20
15239;DHT22;7722;53.274;9.500;2023-03-19T15:29:45;20.00;98.20
15239;DHT22;7722;53.274;9.500;2023-03-19T15:32:14;20.40;97.60
15239;DHT22;7722;53.274;9.500;2023-03-19T15:34:57;19.80;96.60
15239;DHT22;7722;53.274;9.500;2023-03-19T15:37:26;19.80;97.50
15239;DHT22;7722;53.274;9.500;2023-03-19T15:39:56;19.30;97.50
15239;DHT22;7722;53.274;9.500;2023-03-19T15:42:26;19.20;97.70
15239;DHT22;7722;53.274;9.500;2023-03-19T15:45:00;19.10;98.20
15239;DHT22;7722;53.274;9.500;2023-03-19T15:47:30;18.90;98.90
15239;DHT22;7722;53.274;9.500;2023-03-19T15:50:04;18.50;99.40
15239;DHT22;7722;53.274;9.500;2023-03-19T15:52:36;17.70;99.90
15239;DHT22;7722;53.274;9.500;2023-03-19T15:55:05;17.70;99.90
15239;DHT22;7722;53.274;9.500;2023-03-19T15:57:34;17.90;99.90
15239;DHT22;7722;53.274;9.500;2023-03-19T16:00:03;17.50;99.90
15239;DHT22;7722;53.274;9.500;2023-03-19T16:02:32;17.30;99.90
15239;DHT22;7722;53.274;9.500;2023-03-19T16:05:01;17.70;99.90
15239;DHT22;7722;53.274;9.500;2023-03-19T16:07:38;17.10;99.90
15239;DHT22;7722;53.274;9.500;2023-03-19T16:10:41;17.50;99.90
15239;DHT22;7722;53.274;9.500;2023-03-19T16:13:28;17.70;99.90
15239;DHT22;7722;53.274;9.500;2023-03-19T16:16:01;18.10;99.90
15239;DHT22;7722;53.274;9.500;2023-03-19T16:18:29;18.30;99.90
15239;DHT22;7722;53.274;9.500;2023-03-19T16:21:05;18.20;99.90
15239;DHT22;7722;53.274;9.500;2023-03-19T16:23:34;18.10;99.90
15239;DHT22;7722;53.274;9.500;2023-03-19T16:26:05;18.00;99.70